Kimballton, Virginia
Current Conditions -  °F | °C
As of 11:15 AM on Thursday 23 Oct 2014 (Local Time) from KPSK Reporting Station
Overcast Overcast  
Wind Chill: 50°   Ceiling: 2400
Heat Index: 50°   Visibility: 10mi
Dew Point: 41°   Wind: 13mph
Humidity: 69%   Direction: 330°NNW
Pressure: 30.15"   Gusts: 17mph
Location:  37.3528°N, 80.6692°W
Report Text: KPSK 231515Z AUTO 33011G15KT 10SM OVC024 10/05 A3015 RMK AO2 T01020048
Loading
Personal Weather Stations






























Interactive Weather Map
Tropical Storm Tracking
New forecast layout! Learn more

10-Day Weather Forecast

Advertisements
Track Severe Weather on mobile